Time;durP1;ratioP1;P1;durP2;ratioP2;P2;SDS_P1;SDS_P2;PMS_P1;PMS_P2;Temp;Humidity;BMP_temperature;BMP_pressure;BME280_temperature;BME280_humidity;BME280_pressure;Samples;Min_cycle;Max_cycle;Signal;HPM_P1;HPM_P2
2023/04/18 00:00:24;;;;;;;15.10;9.27;;;6.00;99.90;;;;;;5009244;28;20026;-59
2023/04/18 00:02:52;;;;;;;11.68;9.77;;;6.00;99.90;;;;;;5008899;28;20029;-60
2023/04/18 00:05:19;;;;;;;10.80;9.70;;;6.00;99.90;;;;;;5007437;28;20092;-58
2023/04/18 00:07:45;;;;;;;10.05;8.88;;;6.00;99.90;;;;;;5008907;28;20253;-59
2023/04/18 00:10:10;;;;;;;11.32;9.00;;;6.00;99.90;;;;;;5008914;28;20489;-58
2023/04/18 00:12:36;;;;;;;9.98;8.98;;;6.00;99.90;;;;;;5009057;28;20550;-58
2023/04/18 00:15:03;;;;;;;14.43;8.95;;;6.10;99.90;;;;;;5008383;28;20084;-60
2023/04/18 00:17:30;;;;;;;10.68;9.57;;;6.10;99.90;;;;;;5009413;28;20141;-61
2023/04/18 00:19:57;;;;;;;11.05;9.95;;;6.00;99.90;;;;;;5008380;28;20038;-59
2023/04/18 00:22:23;;;;;;;10.38;8.85;;;6.00;99.90;;;;;;5010169;28;20036;-58
2023/04/18 00:24:49;;;;;;;11.00;9.80;;;6.00;99.90;;;;;;5008243;28;20057;-59
2023/04/18 00:27:16;;;;;;;11.07;9.32;;;5.90;99.90;;;;;;5009944;28;20034;-58
2023/04/18 00:29:42;;;;;;;9.95;8.95;;;5.80;99.90;;;;;;5008435;28;20108;-59
2023/04/18 00:32:08;;;;;;;9.73;8.80;;;5.80;99.90;;;;;;5008685;28;20034;-61
2023/04/18 00:34:33;;;;;;;10.80;9.00;;;5.70;99.90;;;;;;5008847;28;20030;-58
2023/04/18 00:36:59;;;;;;;10.68;9.55;;;5.70;99.90;;;;;;5008751;28;20072;-58
2023/04/18 00:39:25;;;;;;;9.45;8.45;;;5.70;99.90;;;;;;5008950;28;20022;-59
2023/04/18 00:41:50;;;;;;;13.43;9.48;;;5.70;99.90;;;;;;5008735;28;20132;-59
2023/04/18 00:44:16;;;;;;;13.50;10.30;;;5.60;99.90;;;;;;5008303;28;20189;-58
2023/04/18 00:46:42;;;;;;;10.13;9.15;;;5.60;99.90;;;;;;5008512;28;20033;-57
2023/04/18 00:49:08;;;;;;;13.35;11.38;;;5.60;99.90;;;;;;5003308;28;20038;-58
2023/04/18 00:51:34;;;;;;;10.20;9.20;;;5.50;99.90;;;;;;5007779;28;20033;-58
2023/04/18 00:54:02;;;;;;;11.82;10.25;;;5.40;99.90;;;;;;5008154;28;20225;-59
2023/04/18 00:56:28;;;;;;;12.27;11.02;;;5.30;99.90;;;;;;5007863;28;20044;-59
2023/04/18 00:58:56;;;;;;;13.63;11.05;;;5.30;99.90;;;;;;5008606;28;20037;-60
2023/04/18 01:01:22;;;;;;;15.48;11.50;;;5.30;99.90;;;;;;5007846;28;20040;-58
2023/04/18 01:03:47;;;;;;;13.63;12.18;;;5.30;99.90;;;;;;5008288;28;20030;-59
2023/04/18 01:06:13;;;;;;;13.27;12.00;;;5.30;99.90;;;;;;5006680;28;20445;-60
2023/04/18 01:08:40;;;;;;;12.90;10.90;;;5.30;99.90;;;;;;5008509;28;20030;-59
2023/04/18 01:11:06;;;;;;;12.75;11.43;;;5.40;99.90;;;;;;5007595;28;20065;-58
2023/04/18 01:13:32;;;;;;;12.23;11.02;;;5.40;99.90;;;;;;5008233;28;20107;-59
2023/04/18 01:15:57;;;;;;;14.77;11.55;;;5.40;99.90;;;;;;5006594;28;20041;-60
2023/04/18 01:18:24;;;;;;;13.15;11.20;;;5.50;99.90;;;;;;5007734;28;20037;-58
2023/04/18 01:20:52;;;;;;;11.55;10.38;;;5.60;99.90;;;;;;5006764;28;20596;-60
2023/04/18 01:23:18;;;;;;;11.60;10.40;;;5.60;99.90;;;;;;5020980;28;20034;-60
2023/04/18 01:25:45;;;;;;;13.52;11.18;;;5.70;99.90;;;;;;5005644;28;20129;-60
2023/04/18 01:28:13;;;;;;;11.75;10.02;;;5.70;99.90;;;;;;5008384;28;20040;-60
2023/04/18 01:30:39;;;;;;;10.55;9.30;;;5.90;99.90;;;;;;5007294;28;20564;-58
2023/04/18 01:33:05;;;;;;;11.55;9.82;;;5.90;99.90;;;;;;5008702;28;20144;-58
2023/04/18 01:35:33;;;;;;;13.05;10.57;;;6.00;99.90;;;;;;5008383;28;20500;-60
2023/04/18 01:38:00;;;;;;;10.57;8.68;;;6.10;99.90;;;;;;5007944;28;20417;-60
2023/04/18 01:40:25;;;;;;;9.82;8.77;;;6.10;99.90;;;;;;5007934;28;20056;-59
2023/04/18 01:42:51;;;;;;;11.48;10.30;;;6.20;99.90;;;;;;5007860;28;20512;-61
2023/04/18 01:45:18;;;;;;;9.90;8.52;;;6.20;99.90;;;;;;5008050;28;20026;-60
2023/04/18 01:47:44;;;;;;;9.48;8.57;;;6.30;99.90;;;;;;5006054;28;20034;-59
2023/04/18 01:50:10;;;;;;;10.32;8.68;;;6.40;99.90;;;;;;5007617;28;20023;-59
2023/04/18 01:52:36;;;;;;;9.95;8.95;;;6.40;99.90;;;;;;5005377;28;20018;-59
2023/04/18 01:55:02;;;;;;;9.35;8.35;;;6.40;99.90;;;;;;5008279;28;20030;-59
2023/04/18 01:57:28;;;;;;;11.00;9.90;;;6.40;99.90;;;;;;5004700;28;20121;-60
2023/04/18 01:59:54;;;;;;;10.45;9.40;;;6.40;99.90;;;;;;5007583;28;20557;-60
2023/04/18 02:02:19;;;;;;;10.00;8.15;;;6.40;99.90;;;;;;5007853;28;20084;-59
2023/04/18 02:04:45;;;;;;;12.38;8.57;;;6.40;99.90;;;;;;5007775;28;20441;-58
2023/04/18 02:07:11;;;;;;;10.27;8.98;;;6.40;99.90;;;;;;5008439;28;20022;-59
2023/04/18 02:09:36;;;;;;;8.63;7.32;;;6.50;99.90;;;;;;5007893;28;20049;-58
2023/04/18 02:12:02;;;;;;;10.40;8.38;;;6.60;99.90;;;;;;5007297;28;20049;-59
2023/04/18 02:14:31;;;;;;;10.50;8.55;;;6.60;99.90;;;;;;5007382;28;20495;-62
2023/04/18 02:16:57;;;;;;;11.07;7.97;;;6.60;99.90;;;;;;5007378;28;20073;-58
2023/04/18 02:19:23;;;;;;;11.05;8.82;;;6.60;99.90;;;;;;5007245;28;20030;-60
2023/04/18 02:21:49;;;;;;;9.00;7.95;;;6.60;99.90;;;;;;5006840;28;20049;-58
2023/04/18 02:24:15;;;;;;;12.07;9.95;;;6.60;99.90;;;;;;5007133;28;20498;-59
2023/04/18 02:26:42;;;;;;;11.20;8.73;;;6.60;99.90;;;;;;5006935;28;20033;-59
2023/04/18 02:29:07;;;;;;;12.05;8.25;;;6.60;99.90;;;;;;5006548;28;20040;-58
2023/04/18 02:31:33;;;;;;;11.10;8.75;;;6.60;99.90;;;;;;5008550;28;20026;-59
2023/04/18 02:33:59;;;;;;;10.48;8.57;;;6.60;99.90;;;;;;5010729;28;20116;-62
2023/04/18 02:36:26;;;;;;;13.40;11.02;;;6.60;99.90;;;;;;5010904;28;20088;-61
2023/04/18 02:38:53;;;;;;;10.60;9.50;;;6.60;99.90;;;;;;5010110;28;20029;-59
2023/04/18 02:41:18;;;;;;;14.88;10.23;;;6.60;99.90;;;;;;5010867;28;20065;-59
2023/04/18 02:43:44;;;;;;;10.60;9.45;;;6.60;99.90;;;;;;5008754;28;20107;-58
2023/04/18 02:46:10;;;;;;;12.82;9.45;;;6.60;99.90;;;;;;5011143;28;20021;-60
2023/04/18 02:48:36;;;;;;;13.85;9.50;;;6.60;99.90;;;;;;5010948;28;20034;-59
2023/04/18 02:51:06;;;;;;;12.05;9.63;;;6.70;99.90;;;;;;5009800;28;20052;-59
2023/04/18 02:53:33;;;;;;;11.25;9.57;;;6.70;99.90;;;;;;5020156;28;20052;-58
2023/04/18 02:55:59;;;;;;;12.50;9.85;;;6.70;99.90;;;;;;5010254;28;20038;-59
2023/04/18 02:58:26;;;;;;;16.60;11.13;;;6.70;99.90;;;;;;5010802;28;20489;-59
2023/04/18 03:00:53;;;;;;;15.27;9.95;;;6.80;99.90;;;;;;5010718;28;20068;-60
2023/04/18 03:03:19;;;;;;;11.70;9.57;;;6.80;99.90;;;;;;5009958;28;20034;-59
2023/04/18 03:05:44;;;;;;;12.98;9.70;;;6.70;99.90;;;;;;5008138;28;20030;-60
2023/04/18 03:08:10;;;;;;;13.23;9.93;;;6.80;99.90;;;;;;5009878;28;20080;-59
2023/04/18 03:10:36;;;;;;;15.88;10.48;;;6.80;99.90;;;;;;5010292;28;20101;-62
2023/04/18 03:13:02;;;;;;;11.55;9.55;;;6.80;99.90;;;;;;5010193;28;20043;-60
2023/04/18 03:15:30;;;;;;;15.90;10.52;;;6.80;99.90;;;;;;5010228;28;20041;-59
2023/04/18 03:17:56;;;;;;;20.58;10.30;;;6.80;99.90;;;;;;5009561;28;20026;-59
2023/04/18 03:20:21;;;;;;;10.93;9.25;;;6.80;99.90;;;;;;5016015;28;20042;-58
2023/04/18 03:22:47;;;;;;;12.25;8.63;;;6.80;99.90;;;;;;5010290;28;20040;-58
2023/04/18 03:25:13;;;;;;;12.57;9.65;;;6.80;99.90;;;;;;5011238;28;20042;-61
2023/04/18 03:27:39;;;;;;;14.13;8.57;;;6.90;99.90;;;;;;5010667;28;20033;-58
2023/04/18 03:30:06;;;;;;;12.13;8.13;;;6.90;99.90;;;;;;5009311;28;20077;-58
2023/04/18 03:32:35;;;;;;;13.20;8.93;;;6.90;99.90;;;;;;5023628;28;20563;-59
2023/04/18 03:35:01;;;;;;;10.07;8.57;;;6.90;99.90;;;;;;5009463;28;20068;-61
2023/04/18 03:37:27;;;;;;;11.75;8.95;;;6.90;99.90;;;;;;5009312;28;20026;-62
2023/04/18 03:39:52;;;;;;;11.43;8.48;;;6.90;99.90;;;;;;5010301;28;20033;-60
2023/04/18 03:42:18;;;;;;;9.07;8.13;;;6.90;99.90;;;;;;5008848;28;20603;-60
2023/04/18 03:44:44;;;;;;;8.40;7.50;;;6.90;99.90;;;;;;5009271;28;20030;-58
2023/04/18 03:47:09;;;;;;;10.93;7.93;;;6.90;99.90;;;;;;5010182;28;20034;-59
2023/04/18 03:49:35;;;;;;;11.45;8.18;;;6.90;99.90;;;;;;5009285;28;20433;-59
2023/04/18 03:52:01;;;;;;;8.85;7.40;;;6.90;99.90;;;;;;5010194;28;20014;-60
2023/04/18 03:54:26;;;;;;;9.43;7.60;;;6.90;99.90;;;;;;5009277;28;20065;-61
2023/04/18 03:56:52;;;;;;;9.25;7.65;;;6.90;99.90;;;;;;5009690;28;20022;-58
2023/04/18 03:59:18;;;;;;;8.38;7.20;;;6.90;99.90;;;;;;5008338;28;20042;-58
2023/04/18 04:01:43;;;;;;;13.10;9.40;;;6.90;99.90;;;;;;5009132;28;20656;-59
2023/04/18 04:04:10;;;;;;;10.50;8.25;;;6.90;99.90;;;;;;5009269;28;20030;-60
2023/04/18 04:06:36;;;;;;;10.07;8.40;;;6.90;99.90;;;;;;5009268;28;20033;-59
2023/04/18 04:09:02;;;;;;;8.80;7.82;;;6.90;99.90;;;;;;5008261;28;20038;-59
2023/04/18 04:11:28;;;;;;;7.85;7.00;;;6.90;99.90;;;;;;5008191;28;20577;-60
2023/04/18 04:13:53;;;;;;;9.27;8.13;;;6.90;99.90;;;;;;5009139;28;20144;-60
2023/04/18 04:16:19;;;;;;;9.15;7.35;;;6.90;99.90;;;;;;5009058;28;20665;-58
2023/04/18 04:18:44;;;;;;;8.50;7.03;;;6.90;99.90;;;;;;5008578;28;20061;-59
2023/04/18 04:21:10;;;;;;;9.18;7.85;;;7.00;99.90;;;;;;5008820;28;20053;-59
2023/04/18 04:23:36;;;;;;;8.80;7.78;;;7.00;99.90;;;;;;5008729;28;20036;-58
2023/04/18 04:26:02;;;;;;;9.75;7.15;;;6.90;99.90;;;;;;5009177;28;20026;-59
2023/04/18 04:28:29;;;;;;;9.20;7.63;;;6.90;99.90;;;;;;5008308;28;20426;-58
2023/04/18 04:30:56;;;;;;;9.32;7.78;;;6.90;99.90;;;;;;5009416;28;20414;-60
2023/04/18 04:33:27;;;;;;;7.43;6.65;;;6.90;99.90;;;;;;5008635;28;20034;-58
2023/04/18 04:35:53;;;;;;;;;;;6.90;99.90;;;;;;5009416;28;20033;-61
2023/04/18 04:38:21;;;;;;;7.93;6.55;;;7.00;99.90;;;;;;5008240;28;20684;-60
2023/04/18 04:40:47;;;;;;;9.05;7.35;;;7.00;99.90;;;;;;5008046;28;20669;-60
2023/04/18 04:43:15;;;;;;;6.43;5.43;;;6.90;99.90;;;;;;5008104;28;20026;-60
2023/04/18 04:45:41;;;;;;;6.10;5.47;;;7.10;99.90;;;;;;5007419;28;20030;-59
2023/04/18 04:48:08;;;;;;;7.45;6.30;;;7.10;99.90;;;;;;5008155;28;20030;-59
2023/04/18 04:50:37;;;;;;;7.20;6.50;;;7.10;99.90;;;;;;5007642;28;20613;-58
2023/04/18 04:53:06;;;;;;;7.22;6.53;;;7.10;99.90;;;;;;5008367;28;20597;-59
2023/04/18 04:55:33;;;;;;;6.85;6.15;;;7.10;99.90;;;;;;5007051;28;20037;-59
2023/04/18 04:57:59;;;;;;;8.13;7.32;;;7.20;99.90;;;;;;5008636;28;20022;-60
2023/04/18 05:00:24;;;;;;;6.22;5.63;;;7.20;99.90;;;;;;5008017;28;20569;-63
2023/04/18 05:02:54;;;;;;;6.72;5.82;;;7.20;99.90;;;;;;5007931;28;20018;-60
2023/04/18 05:05:20;;;;;;;7.22;5.95;;;7.30;99.90;;;;;;5009084;28;20141;-59
2023/04/18 05:07:46;;;;;;;6.70;6.10;;;7.30;99.90;;;;;;5008123;28;20549;-61
2023/04/18 05:10:11;;;;;;;8.98;7.18;;;7.30;99.90;;;;;;5007266;28;20100;-60
2023/04/18 05:12:37;;;;;;;6.10;5.50;;;7.30;99.90;;;;;;5007408;28;20033;-59
2023/04/18 05:15:03;;;;;;;7.05;6.40;;;7.30;99.90;;;;;;5006494;28;20033;-58
2023/04/18 05:17:28;;;;;;;6.65;5.97;;;7.30;99.90;;;;;;5008229;28;20026;-61
2023/04/18 05:19:54;;;;;;;7.90;6.75;;;7.40;99.90;;;;;;5007324;28;20092;-61
2023/04/18 05:22:20;;;;;;;8.60;7.63;;;7.40;99.90;;;;;;5009203;28;20022;-59
2023/04/18 05:24:45;;;;;;;9.10;7.10;;;7.40;99.90;;;;;;5008334;28;20045;-59
2023/04/18 05:27:15;;;;;;;7.07;6.38;;;7.40;99.90;;;;;;5007969;28;20414;-62
2023/04/18 05:29:40;;;;;;;8.13;7.32;;;7.50;99.90;;;;;;5008390;28;20109;-59
2023/04/18 05:32:06;;;;;;;8.80;7.93;;;7.60;99.90;;;;;;5007773;28;20053;-60
2023/04/18 05:34:34;;;;;;;7.47;6.78;;;7.70;99.90;;;;;;5007989;28;20068;-60
2023/04/18 05:37:00;;;;;;;7.97;7.05;;;8.00;99.90;;;;;;5008862;28;20033;-60
2023/04/18 05:39:26;;;;;;;7.70;7.00;;;8.30;99.90;;;;;;5007885;28;20026;-60
2023/04/18 05:41:52;;;;;;;5.75;5.18;;;8.60;99.90;;;;;;5007836;28;20026;-61
2023/04/18 05:44:18;;;;;;;7.47;6.78;;;8.90;99.90;;;;;;5006488;28;20113;-59
2023/04/18 05:46:44;;;;;;;6.93;6.32;;;9.10;99.90;;;;;;5007646;28;20065;-61
2023/04/18 05:49:10;;;;;;;6.72;6.03;;;9.30;99.90;;;;;;5006813;28;20112;-61
2023/04/18 05:51:36;;;;;;;6.28;5.68;;;9.40;99.90;;;;;;5007407;28;20129;-59
2023/04/18 05:54:01;;;;;;;7.07;6.10;;;9.30;99.90;;;;;;5006721;28;20038;-60
2023/04/18 05:56:28;;;;;;;6.63;6.03;;;9.30;99.90;;;;;;5007146;28;20113;-59
2023/04/18 05:58:53;;;;;;;7.50;6.80;;;9.20;99.90;;;;;;5005989;28;20091;-59
2023/04/18 06:01:20;;;;;;;6.97;6.35;;;9.20;99.90;;;;;;5007179;28;20029;-59
2023/04/18 06:03:46;;;;;;;6.30;5.70;;;9.00;99.90;;;;;;5007073;28;20038;-59
2023/04/18 06:06:12;;;;;;;7.38;6.68;;;8.90;99.90;;;;;;5007690;28;20056;-59
2023/04/18 06:08:38;;;;;;;7.45;6.60;;;8.70;99.90;;;;;;5011045;28;20083;-60
2023/04/18 06:11:04;;;;;;;7.22;6.57;;;8.60;99.90;;;;;;5009421;28;20088;-58
2023/04/18 06:13:30;;;;;;;7.53;6.72;;;8.60;99.90;;;;;;5008421;28;20931;-59
2023/04/18 06:15:56;;;;;;;7.43;6.78;;;8.50;99.90;;;;;;5011763;28;20022;-59
2023/04/18 06:18:21;;;;;;;8.20;7.47;;;8.50;99.90;;;;;;5010961;28;20497;-58
2023/04/18 06:20:47;;;;;;;7.80;7.10;;;8.40;99.90;;;;;;5009814;28;20070;-58
2023/04/18 06:23:12;;;;;;;8.30;7.40;;;8.40;99.90;;;;;;5012714;28;20113;-59
2023/04/18 06:25:40;;;;;;;8.20;7.13;;;8.30;99.90;;;;;;5008461;28;20018;-60
2023/04/18 06:28:06;;;;;;;7.18;6.55;;;8.40;99.90;;;;;;5010857;28;20033;-59
2023/04/18 06:30:32;;;;;;;7.47;6.78;;;8.40;99.90;;;;;;5008451;28;20038;-59
2023/04/18 06:32:57;;;;;;;7.78;7.00;;;8.40;99.90;;;;;;5009916;28;20117;-60
2023/04/18 06:35:23;;;;;;;7.65;6.82;;;8.50;99.90;;;;;;5008726;28;20042;-61
2023/04/18 06:37:49;;;;;;;8.07;7.28;;;8.60;99.90;;;;;;5007489;28;20061;-59
2023/04/18 06:40:15;;;;;;;8.73;7.88;;;8.70;99.90;;;;;;5006863;28;20030;-59
2023/04/18 06:42:42;;;;;;;7.57;6.88;;;8.70;99.90;;;;;;5007567;28;20087;-59
2023/04/18 06:45:10;;;;;;;8.90;8.00;;;8.80;99.90;;;;;;5007204;28;20030;-60
2023/04/18 06:47:37;;;;;;;8.25;7.45;;;8.90;99.90;;;;;;5007879;28;20038;-59
2023/04/18 06:50:03;;;;;;;9.02;8.10;;;8.90;99.90;;;;;;5005865;28;20022;-60
2023/04/18 06:52:29;;;;;;;7.63;6.93;;;9.00;99.90;;;;;;5007507;28;20026;-60
2023/04/18 06:54:55;;;;;;;8.52;7.25;;;9.00;99.90;;;;;;5006400;28;20450;-63
2023/04/18 06:57:20;;;;;;;8.65;7.85;;;9.00;99.90;;;;;;5007278;28;20032;-61
2023/04/18 06:59:46;;;;;;;8.45;7.65;;;9.00;99.90;;;;;;5007954;28;20029;-58
2023/04/18 07:02:11;;;;;;;8.68;7.82;;;9.00;99.90;;;;;;5007469;28;20060;-60
2023/04/18 07:04:37;;;;;;;8.93;8.07;;;9.00;99.90;;;;;;5007302;28;20025;-59
2023/04/18 07:07:04;;;;;;;8.57;7.78;;;9.20;99.90;;;;;;5009804;28;20037;-59
2023/04/18 07:09:30;;;;;;;8.40;7.53;;;9.30;99.90;;;;;;5009019;28;20033;-59
2023/04/18 07:11:56;;;;;;;7.70;7.00;;;9.50;99.90;;;;;;5005919;28;20433;-59
2023/04/18 07:14:22;;;;;;;7.97;7.20;;;9.70;99.90;;;;;;5010341;28;20091;-59
2023/04/18 07:16:48;;;;;;;7.28;6.57;;;9.80;99.90;;;;;;5009287;28;20118;-60
2023/04/18 07:19:14;;;;;;;9.02;6.00;;;10.00;99.90;;;;;;5009640;28;20105;-59
2023/04/18 07:21:42;;;;;;;7.35;6.53;;;10.10;99.90;;;;;;5008457;28;20049;-62
2023/04/18 07:24:08;;;;;;;6.78;6.15;;;10.30;99.90;;;;;;5009343;28;20057;-60
2023/04/18 07:26:34;;;;;;;7.40;6.53;;;10.40;99.90;;;;;;5007008;28;20041;-59
2023/04/18 07:29:01;;;;;;;8.18;7.18;;;10.60;99.90;;;;;;5008770;28;20092;-60
2023/04/18 07:31:27;;;;;;;7.90;7.10;;;10.80;99.90;;;;;;5008600;28;20046;-59
2023/04/18 07:33:53;;;;;;;7.60;6.90;;;11.10;99.90;;;;;;5009666;28;20017;-60
2023/04/18 07:36:20;;;;;;;10.07;7.53;;;11.30;99.90;;;;;;5007660;28;20038;-61
2023/04/18 07:38:46;;;;;;;9.05;8.15;;;11.40;99.90;;;;;;5009472;28;20029;-58
2023/04/18 07:41:12;;;;;;;10.05;8.10;;;11.30;99.90;;;;;;5008777;28;20394;-58
2023/04/18 07:43:37;;;;;;;8.90;7.93;;;11.30;99.90;;;;;;5009933;28;20028;-59
2023/04/18 07:46:04;;;;;;;8.95;8.15;;;11.20;99.90;;;;;;5011154;28;20466;-58
2023/04/18 07:48:30;;;;;;;9.77;8.88;;;11.20;99.90;;;;;;5010165;28;20037;-59
2023/04/18 07:50:56;;;;;;;9.30;8.35;;;11.10;99.90;;;;;;5009797;28;20022;-61
2023/04/18 07:53:22;;;;;;;9.70;8.63;;;11.20;99.90;;;;;;5009252;28;20092;-59
2023/04/18 07:55:48;;;;;;;10.65;8.38;;;11.20;99.90;;;;;;5006275;28;20080;-59
2023/04/18 07:58:14;;;;;;;8.10;7.30;;;11.30;99.90;;;;;;5009760;28;20109;-60
2023/04/18 08:00:41;;;;;;;10.30;9.35;;;11.30;99.90;;;;;;5001144;28;20148;-60
2023/04/18 08:03:09;;;;;;;9.40;8.50;;;11.40;99.90;;;;;;5009468;28;20058;-59
2023/04/18 08:05:35;;;;;;;9.63;7.70;;;11.60;99.90;;;;;;5008893;28;20104;-59
2023/04/18 08:08:01;;;;;;;10.48;9.45;;;11.60;99.90;;;;;;5009678;28;20060;-59
2023/04/18 08:10:26;;;;;;;10.27;9.27;;;11.70;99.90;;;;;;5008965;28;20492;-60
2023/04/18 08:12:52;;;;;;;10.07;9.05;;;11.80;99.90;;;;;;5009685;28;20048;-59
2023/04/18 08:15:18;;;;;;;9.20;8.30;;;11.80;99.90;;;;;;5009352;28;20070;-59
2023/04/18 08:17:44;;;;;;;9.73;8.82;;;11.70;99.90;;;;;;5008913;28;20517;-59
2023/04/18 08:20:11;;;;;;;10.40;9.38;;;11.70;99.90;;;;;;5009078;28;20122;-59
2023/04/18 08:22:37;;;;;;;10.27;8.70;;;11.50;99.90;;;;;;5009075;28;20024;-59
2023/04/18 08:25:03;;;;;;;10.95;9.95;;;11.50;99.90;;;;;;5009763;28;20022;-59
2023/04/18 08:27:30;;;;;;;9.27;8.38;;;11.40;99.90;;;;;;5008696;28;20379;-61
2023/04/18 08:29:55;;;;;;;10.25;8.95;;;11.50;99.90;;;;;;5008067;28;20034;-58
2023/04/18 08:32:21;;;;;;;10.75;9.75;;;11.50;99.90;;;;;;5009262;28;20034;-60
2023/04/18 08:34:47;;;;;;;10.77;9.77;;;11.50;99.90;;;;;;5008637;28;20040;-58
2023/04/18 08:37:13;;;;;;;11.57;9.45;;;11.50;99.90;;;;;;5009435;28;20034;-59
2023/04/18 08:39:39;;;;;;;10.52;9.52;;;11.50;99.90;;;;;;5008632;28;20022;-58
2023/04/18 08:42:05;;;;;;;10.40;9.35;;;11.50;99.90;;;;;;5008998;28;20084;-59
2023/04/18 08:44:31;;;;;;;11.57;9.95;;;11.60;99.90;;;;;;5009100;28;20053;-62
2023/04/18 08:46:59;;;;;;;12.02;10.68;;;11.70;99.90;;;;;;5009626;28;20033;-63
2023/04/18 08:49:24;;;;;;;11.85;10.65;;;11.60;99.90;;;;;;5008397;28;20113;-59
2023/04/18 08:51:51;;;;;;;12.60;11.45;;;11.70;99.90;;;;;;5009219;28;20125;-59
2023/04/18 08:54:19;;;;;;;12.20;10.50;;;11.80;99.90;;;;;;5009089;28;20064;-59
2023/04/18 08:56:45;;;;;;;12.02;9.63;;;11.80;99.90;;;;;;5008650;28;20062;-61
2023/04/18 08:59:11;;;;;;;12.05;10.85;;;11.90;99.90;;;;;;5007009;28;20124;-59
2023/04/18 09:01:57;;;;;;;11.68;10.55;;;11.90;99.90;;;;;;5007509;28;20041;-60
2023/04/18 09:04:52;;;;;;;12.18;11.05;;;12.10;99.90;;;;;;5008884;28;20377;-58
2023/04/18 09:07:19;;;;;;;12.45;10.27;;;12.40;99.90;;;;;;4991970;28;20117;-59
2023/04/18 09:09:47;;;;;;;12.63;11.43;;;12.70;99.90;;;;;;5007790;28;20042;-58
2023/04/18 09:12:21;;;;;;;12.00;10.90;;;12.80;99.90;;;;;;5008188;28;20053;-59
2023/04/18 09:14:50;;;;;;;11.20;10.20;;;13.00;99.90;;;;;;5007866;28;20030;-59
2023/04/18 09:17:37;;;;;;;13.40;11.00;;;13.00;99.90;;;;;;5008467;28;20033;-60
2023/04/18 09:20:04;;;;;;;12.85;11.65;;;13.00;99.90;;;;;;5007859;28;20406;-61
2023/04/18 09:22:46;;;;;;;13.27;12.07;;;12.70;99.90;;;;;;5008004;28;20025;-60
2023/04/18 09:25:33;;;;;;;11.60;10.50;;;12.70;99.90;;;;;;5008200;28;20022;-60
2023/04/18 09:28:00;;;;;;;11.82;10.55;;;12.60;99.90;;;;;;5007911;28;20506;-61
2023/04/18 09:30:29;;;;;;;14.27;12.52;;;12.50;99.90;;;;;;5006861;28;20043;-59
2023/04/18 09:33:00;;;;;;;12.65;11.55;;;12.20;99.90;;;;;;5007391;28;20036;-60
2023/04/18 09:35:25;;;;;;;12.20;11.05;;;12.00;99.90;;;;;;5005837;28;20037;-59
2023/04/18 09:37:51;;;;;;;12.20;11.10;;;12.00;99.90;;;;;;5007236;28;20033;-59
2023/04/18 09:40:18;;;;;;;12.55;11.35;;;12.00;99.90;;;;;;5008201;28;20018;-59
2023/04/18 09:42:44;;;;;;;12.63;11.32;;;12.00;99.90;;;;;;5007996;28;20034;-60
2023/04/18 09:45:11;;;;;;;11.55;10.40;;;11.90;99.90;;;;;;5007540;28;20030;-59
2023/04/18 09:47:38;;;;;;;12.40;11.18;;;11.70;99.90;;;;;;5007969;28;20038;-61
2023/04/18 09:50:05;;;;;;;11.82;10.57;;;11.70;99.90;;;;;;5006554;28;20418;-61
2023/04/18 09:52:39;;;;;;;12.65;11.45;;;11.70;99.90;;;;;;5008322;28;20405;-60
2023/04/18 09:55:07;;;;;;;12.55;11.35;;;11.70;99.90;;;;;;5007502;28;20025;-60
2023/04/18 09:57:35;;;;;;;12.75;11.48;;;11.80;99.90;;;;;;5007383;28;20033;-60
2023/04/18 10:00:12;;;;;;;11.48;10.27;;;12.00;99.90;;;;;;5006780;28;20049;-62
2023/04/18 10:02:56;;;;;;;12.20;11.10;;;12.00;99.90;;;;;;5006983;28;20026;-59
2023/04/18 10:05:25;;;;;;;11.10;10.07;;;12.00;99.90;;;;;;5007689;28;20046;-60
2023/04/18 10:07:52;;;;;;;10.23;9.23;;;12.00;99.90;;;;;;5006995;28;20037;-60
2023/04/18 10:10:18;;;;;;;10.60;8.73;;;11.90;99.90;;;;;;5007807;28;20460;-62
2023/04/18 10:12:46;;;;;;;10.05;9.05;;;11.90;99.90;;;;;;5008872;28;20038;-60
2023/04/18 10:15:14;;;;;;;11.35;10.18;;;11.90;99.90;;;;;;5006907;28;20077;-58
2023/04/18 10:17:45;;;;;;;11.45;10.25;;;11.80;99.90;;;;;;5006948;28;20033;-59
2023/04/18 10:20:28;;;;;;;12.48;9.65;;;11.80;99.90;;;;;;5007125;28;20056;-59
2023/04/18 10:22:54;;;;;;;10.85;9.90;;;11.80;99.90;;;;;;5008631;28;20557;-59
2023/04/18 10:25:38;;;;;;;11.27;10.27;;;11.90;99.90;;;;;;5007430;28;20022;-59
2023/04/18 10:28:08;;;;;;;9.13;8.23;;;12.00;99.90;;;;;;5009256;28;20092;-59
2023/04/18 10:30:39;;;;;;;10.90;9.90;;;12.10;99.90;;;;;;5008865;28;20041;-59
2023/04/18 10:33:34;;;;;;;9.70;8.80;;;12.20;99.90;;;;;;5008850;28;20505;-58
2023/04/18 10:36:04;;;;;;;10.15;9.18;;;12.80;99.90;;;;;;5007849;28;20128;-59
2023/04/18 10:38:30;;;;;;;13.63;9.82;;;13.30;99.90;;;;;;5007170;28;20030;-62
2023/04/18 10:41:18;;;;;;;11.23;10.23;;;13.60;99.90;;;;;;5006726;28;20525;-60
2023/04/18 10:44:08;;;;;;;11.80;10.70;;;13.60;99.90;;;;;;5006336;28;20018;-58
2023/04/18 10:46:38;;;;;;;10.73;9.15;;;13.40;99.90;;;;;;5007371;28;20029;-60
2023/04/18 10:49:20;;;;;;;11.00;9.02;;;13.60;99.90;;;;;;5007234;28;20532;-62
2023/04/18 10:51:48;;;;;;;9.65;8.80;;;13.70;99.90;;;;;;5006997;28;20042;-63
2023/04/18 10:54:27;;;;;;;9.05;8.25;;;13.70;99.90;;;;;;5010378;28;20026;-60
2023/04/18 10:56:57;;;;;;;8.93;8.18;;;13.80;99.90;;;;;;5009922;28;20379;-59
2023/04/18 10:59:24;;;;;;;9.05;8.20;;;14.10;99.60;;;;;;5010091;28;20026;-62
2023/04/18 11:01:55;;;;;;;9.13;8.23;;;14.00;99.20;;;;;;5010947;28;20033;-60
2023/04/18 11:04:23;;;;;;;7.80;7.05;;;13.90;98.20;;;;;;5012974;28;20030;-62
2023/04/18 11:06:51;;;;;;;8.85;7.95;;;13.90;99.90;;;;;;5009549;28;20022;-62
2023/04/18 11:09:17;;;;;;;8.73;8.02;;;14.10;99.80;;;;;;5010648;28;20064;-60
2023/04/18 11:11:43;;;;;;;8.85;8.00;;;14.20;97.90;;;;;;5009743;28;20037;-61
2023/04/18 11:14:09;;;;;;;7.93;7.22;;;14.30;99.10;;;;;;5010526;28;20045;-60
2023/04/18 11:16:35;;;;;;;9.10;7.60;;;14.10;99.20;;;;;;5010217;28;20367;-60
2023/04/18 11:19:22;;;;;;;8.70;7.78;;;14.00;96.70;;;;;;5010970;28;20029;-59
2023/04/18 11:21:48;;;;;;;9.93;8.93;;;13.80;96.70;;;;;;5009750;28;20057;-60
2023/04/18 11:24:23;;;;;;;8.27;7.55;;;13.70;98.50;;;;;;5010859;28;20038;-60
2023/04/18 11:26:49;;;;;;;10.38;9.27;;;13.80;99.60;;;;;;5010317;28;20026;-63
2023/04/18 11:29:17;;;;;;;7.82;7.13;;;14.00;97.60;;;;;;5009938;28;20065;-60
2023/04/18 11:31:52;;;;;;;10.00;9.10;;;14.00;97.40;;;;;;5010147;28;20025;-61
2023/04/18 11:34:17;;;;;;;10.18;9.18;;;14.10;97.60;;;;;;5008733;28;20030;-60
2023/04/18 11:36:46;;;;;;;9.30;8.50;;;14.00;98.00;;;;;;5010220;28;20125;-59
2023/04/18 11:39:13;;;;;;;14.55;7.70;;;13.80;97.50;;;;;;5009848;28;20091;-61
2023/04/18 11:41:40;;;;;;;8.57;7.78;;;13.60;97.00;;;;;;5009629;28;20144;-62
2023/04/18 11:44:06;;;;;;;10.48;9.50;;;13.40;98.10;;;;;;5010132;28;20030;-61
2023/04/18 11:46:38;;;;;;;8.00;7.20;;;13.30;98.30;;;;;;5009941;28;20502;-59
2023/04/18 11:49:04;;;;;;;10.15;8.10;;;13.10;98.00;;;;;;5008940;28;20021;-58
2023/04/18 11:51:46;;;;;;;8.13;7.43;;;12.90;99.10;;;;;;5009460;28;20034;-59
2023/04/18 11:54:35;;;;;;;8.57;7.55;;;12.90;98.70;;;;;;5009959;28;20562;-58
2023/04/18 11:57:01;;;;;;;8.48;7.13;;;12.90;98.20;;;;;;4999563;28;20516;-59
2023/04/18 11:59:26;;;;;;;9.30;7.32;;;12.80;98.40;;;;;;5009941;28;20022;-61
2023/04/18 12:02:02;;;;;;;8.38;7.57;;;12.50;98.40;;;;;;5009121;28;20053;-59
2023/04/18 12:04:28;;;;;;;9.40;8.45;;;12.30;99.70;;;;;;5008758;28;20032;-60
2023/04/18 12:06:54;;;;;;;8.45;7.22;;;12.30;99.60;;;;;;5010876;28;20022;-60
2023/04/18 12:09:21;;;;;;;8.27;7.28;;;12.30;99.60;;;;;;5010281;28;20477;-59
2023/04/18 12:12:01;;;;;;;9.85;8.65;;;12.40;99.90;;;;;;5008165;28;20040;-59
2023/04/18 12:14:27;;;;;;;9.43;8.52;;;12.40;99.90;;;;;;5008639;28;20022;-59
2023/04/18 12:16:53;;;;;;;8.77;7.88;;;12.40;99.90;;;;;;5009123;28;20034;-61
2023/04/18 12:19:19;;;;;;;10.68;7.32;;;12.20;99.90;;;;;;5009581;28;20112;-60
2023/04/18 12:22:00;;;;;;;10.10;8.18;;;12.10;99.90;;;;;;5007696;28;20030;-59
2023/04/18 12:24:27;;;;;;;;;;;12.00;99.90;;;;;;5009319;28;20070;-59
2023/04/18 12:26:54;;;;;;;8.60;7.70;;;11.80;99.90;;;;;;5008330;28;20453;-58
2023/04/18 12:29:19;;;;;;;8.23;7.43;;;11.80;99.90;;;;;;5008850;28;20037;-60
2023/04/18 12:31:46;;;;;;;8.88;7.97;;;11.70;99.90;;;;;;5007614;28;20256;-60
2023/04/18 12:34:12;;;;;;;9.65;8.75;;;11.70;99.90;;;;;;5008896;28;20033;-59
2023/04/18 12:36:38;;;;;;;10.77;9.63;;;11.70;99.90;;;;;;5008065;28;20037;-59
2023/04/18 12:39:03;;;;;;;9.40;8.30;;;11.70;99.90;;;;;;5008183;28;20057;-59
2023/04/18 12:41:29;;;;;;;14.52;10.02;;;11.80;99.90;;;;;;5007051;28;20041;-58
2023/04/18 12:43:55;;;;;;;9.80;8.80;;;11.70;99.90;;;;;;5004973;28;20041;-60
2023/04/18 12:46:20;;;;;;;11.50;10.18;;;11.60;99.90;;;;;;5008893;28;20048;-60